Time;durP1;ratioP1;P1;durP2;ratioP2;P2;SDS_P1;SDS_P2;PMS_P1;PMS_P2;Temp;Humidity;BMP_temperature;BMP_pressure;BME280_temperature;BME280_humidity;BME280_pressure;Samples;Min_cycle;Max_cycle;Signal;HPM_P1;HPM_P2
2021/11/13 00:01:45;;;;;;;26.90;15.83;;;5.40;99.90;;;;;;5156812;27;20203;-69
2021/11/13 00:04:13;;;;;;;26.90;15.20;;;5.50;99.90;;;;;;5167136;27;20342;-69
2021/11/13 00:06:40;;;;;;;26.03;15.70;;;5.40;99.90;;;;;;5155366;27;20282;-69
2021/11/13 00:09:10;;;;;;;25.17;15.10;;;5.50;99.90;;;;;;5162057;27;20214;-69
2021/11/13 00:11:38;;;;;;;27.13;15.57;;;5.40;99.90;;;;;;5173748;27;20226;-69
2021/11/13 00:14:05;;;;;;;27.97;15.03;;;5.50;99.90;;;;;;5174963;27;20203;-69
2021/11/13 00:16:33;;;;;;;26.37;15.57;;;5.50;99.90;;;;;;5171051;27;20199;-69
2021/11/13 00:19:01;;;;;;;29.63;16.83;;;5.60;99.90;;;;;;5165477;27;20282;-69
2021/11/13 00:21:29;;;;;;;27.30;15.57;;;5.60;99.90;;;;;;5172150;27;20215;-69
2021/11/13 00:23:56;;;;;;;26.07;15.13;;;5.50;99.90;;;;;;5167723;27;20563;-69
2021/11/13 00:26:24;;;;;;;27.10;15.33;;;5.40;99.90;;;;;;5160364;27;20203;-69
2021/11/13 00:28:51;;;;;;;26.27;14.33;;;5.50;99.90;;;;;;5160986;27;20302;-69
2021/11/13 00:31:18;;;;;;;26.90;15.63;;;5.40;99.90;;;;;;5171888;27;20260;-69
2021/11/13 00:33:45;;;;;;;25.30;14.90;;;5.50;99.90;;;;;;5167110;27;20198;-69
2021/11/13 00:36:13;;;;;;;25.87;14.90;;;5.50;99.90;;;;;;5153324;27;20255;-69
2021/11/13 00:38:40;;;;;;;25.17;14.77;;;5.60;99.90;;;;;;5160625;27;20207;-69
2021/11/13 00:41:07;;;;;;;25.57;15.30;;;5.50;99.90;;;;;;5163508;27;20210;-69
2021/11/13 00:43:35;;;;;;;24.70;14.53;;;5.40;99.90;;;;;;5159831;27;20266;-69
2021/11/13 00:46:03;;;;;;;24.30;14.07;;;5.40;99.90;;;;;;5160484;27;20267;-69
2021/11/13 00:48:29;;;;;;;23.40;14.27;;;5.40;99.90;;;;;;5158746;27;20218;-69
2021/11/13 00:50:56;;;;;;;25.57;15.07;;;5.40;99.90;;;;;;5162920;27;20255;-69
2021/11/13 00:53:24;;;;;;;23.20;13.53;;;5.30;99.90;;;;;;5163939;27;20235;-69
2021/11/13 00:55:51;;;;;;;25.57;15.13;;;5.30;99.90;;;;;;5162707;27;20246;-69
2021/11/13 00:58:18;;;;;;;26.07;15.20;;;5.40;99.90;;;;;;5157354;27;20200;-69
2021/11/13 01:00:47;;;;;;;25.10;15.43;;;5.30;99.90;;;;;;5166452;27;20207;-69
2021/11/13 01:03:14;;;;;;;25.63;15.13;;;5.40;99.90;;;;;;5159375;27;20199;-69
2021/11/13 01:05:41;;;;;;;24.33;13.93;;;5.40;99.90;;;;;;5155178;27;20199;-69
2021/11/13 01:08:08;;;;;;;24.47;14.17;;;5.40;99.90;;;;;;5152761;27;20231;-69
2021/11/13 01:10:36;;;;;;;24.97;14.23;;;5.30;99.90;;;;;;5168718;27;20301;-69
2021/11/13 01:13:03;;;;;;;23.60;13.90;;;5.50;99.90;;;;;;5172182;27;20412;-69
2021/11/13 01:15:30;;;;;;;26.37;14.67;;;5.60;99.90;;;;;;5164787;27;20192;-69
2021/11/13 01:17:59;;;;;;;24.37;14.17;;;5.60;99.90;;;;;;5160463;27;20219;-69
2021/11/13 01:20:29;;;;;;;24.77;14.53;;;5.60;99.90;;;;;;5163288;27;20247;-69
2021/11/13 01:22:56;;;;;;;26.67;14.33;;;5.60;99.90;;;;;;5161118;27;20209;-69
2021/11/13 01:25:23;;;;;;;22.70;13.63;;;5.70;99.90;;;;;;5161254;27;20223;-69
2021/11/13 01:27:50;;;;;;;24.33;14.23;;;5.70;99.90;;;;;;5173191;27;20199;-69
2021/11/13 01:30:18;;;;;;;23.00;13.10;;;5.60;99.90;;;;;;5161775;27;20307;-69
2021/11/13 01:32:45;;;;;;;22.50;14.10;;;5.70;99.90;;;;;;5174132;27;20191;-69
2021/11/13 01:35:15;;;;;;;23.57;14.03;;;5.70;99.90;;;;;;5167152;27;20348;-69
2021/11/13 01:37:42;;;;;;;25.17;14.47;;;5.60;99.90;;;;;;5176975;27;20238;-69
2021/11/13 01:40:13;;;;;;;24.17;13.70;;;5.70;99.90;;;;;;5174684;27;20188;-69
2021/11/13 01:42:40;;;;;;;22.70;13.87;;;5.70;99.90;;;;;;5177002;27;20207;-69
2021/11/13 01:45:09;;;;;;;24.53;13.97;;;5.70;99.90;;;;;;5159104;27;20207;-69
2021/11/13 01:47:38;;;;;;;23.73;13.47;;;5.60;99.90;;;;;;5155389;27;20242;-69
2021/11/13 01:50:11;;;;;;;23.60;12.77;;;5.70;99.90;;;;;;5158283;27;20220;-69
2021/11/13 01:52:39;;;;;;;22.37;13.10;;;5.70;99.90;;;;;;5138519;27;20195;-69
2021/11/13 01:55:07;;;;;;;22.93;13.10;;;5.70;99.90;;;;;;5158416;27;20223;-69
2021/11/13 01:57:44;;;;;;;24.00;13.07;;;5.80;99.90;;;;;;5157511;27;20594;-69
2021/11/13 02:00:13;;;;;;;20.63;12.27;;;5.80;99.90;;;;;;5144524;27;20267;-69
2021/11/13 02:02:41;;;;;;;22.40;12.73;;;5.80;99.90;;;;;;5159897;27;20207;-69
2021/11/13 02:05:08;;;;;;;20.40;12.40;;;5.90;99.90;;;;;;5168590;27;20432;-69
2021/11/13 02:07:36;;;;;;;22.30;12.63;;;5.90;99.90;;;;;;5159898;27;20195;-69
2021/11/13 02:10:06;;;;;;;21.77;12.07;;;6.00;99.90;;;;;;5156357;27;20250;-69
2021/11/13 02:12:33;;;;;;;21.50;12.07;;;6.00;99.90;;;;;;5164741;27;20244;-69
2021/11/13 02:15:00;;;;;;;21.07;11.37;;;6.10;99.90;;;;;;5170942;27;20227;-69
2021/11/13 02:17:27;;;;;;;21.60;11.40;;;6.10;99.90;;;;;;5155688;27;20191;-69
2021/11/13 02:19:55;;;;;;;19.60;12.03;;;6.20;99.90;;;;;;5175655;27;20259;-69
2021/11/13 02:22:24;;;;;;;21.00;11.30;;;6.20;99.90;;;;;;5177166;27;20198;-69
2021/11/13 02:24:51;;;;;;;19.43;11.57;;;6.20;99.90;;;;;;5167887;27;20625;-69
2021/11/13 02:27:18;;;;;;;20.43;12.13;;;6.10;99.90;;;;;;5165149;27;20669;-69
2021/11/13 02:29:45;;;;;;;20.37;11.37;;;6.10;99.90;;;;;;5174009;27;20218;-69
2021/11/13 02:32:12;;;;;;;20.03;11.30;;;6.00;99.90;;;;;;5167810;27;20267;-69
2021/11/13 02:34:39;;;;;;;19.47;11.17;;;6.00;99.90;;;;;;5170238;27;20668;-69
2021/11/13 02:37:08;;;;;;;18.50;11.03;;;6.10;99.90;;;;;;5170737;27;20585;-69
2021/11/13 02:39:37;;;;;;;18.93;11.33;;;6.00;99.90;;;;;;5172748;27;20715;-69
2021/11/13 02:42:05;;;;;;;20.73;11.50;;;6.00;99.90;;;;;;5161441;27;20256;-69
2021/11/13 02:44:33;;;;;;;21.67;11.93;;;6.00;99.90;;;;;;5160272;27;20252;-69
2021/11/13 02:47:00;;;;;;;21.23;12.27;;;6.00;99.90;;;;;;5167053;27;20203;-69
2021/11/13 02:49:29;;;;;;;20.53;12.37;;;6.00;99.90;;;;;;5171270;27;20215;-69
2021/11/13 02:51:56;;;;;;;21.70;12.40;;;6.10;99.90;;;;;;5173851;27;20199;-69
2021/11/13 02:54:24;;;;;;;22.00;12.77;;;6.10;99.90;;;;;;5156609;27;20227;-69
2021/11/13 02:56:51;;;;;;;20.43;12.20;;;6.00;99.90;;;;;;5167258;27;20203;-77
2021/11/13 02:59:18;;;;;;;20.37;11.57;;;6.10;99.90;;;;;;5174985;27;20685;-77
2021/11/13 03:01:45;;;;;;;20.83;12.20;;;6.10;99.90;;;;;;5168311;27;20661;-77
2021/11/13 03:04:12;;;;;;;21.50;12.40;;;6.10;99.90;;;;;;5159216;27;20191;-77
2021/11/13 03:06:39;;;;;;;19.77;11.03;;;6.10;99.90;;;;;;5174535;27;20259;-77
2021/11/13 03:09:06;;;;;;;20.00;11.60;;;6.10;99.90;;;;;;5167949;27;20203;-78
2021/11/13 03:11:35;;;;;;;22.03;12.53;;;6.10;99.90;;;;;;5175606;27;20632;-77
2021/11/13 03:14:02;;;;;;;22.40;12.60;;;6.00;99.90;;;;;;5175434;27;20640;-77
2021/11/13 03:16:29;;;;;;;20.07;11.73;;;6.00;99.90;;;;;;5159899;27;20705;-77
2021/11/13 03:18:56;;;;;;;20.70;12.33;;;6.00;99.90;;;;;;5166473;27;20203;-77
2021/11/13 03:21:23;;;;;;;19.10;11.23;;;6.00;99.90;;;;;;5161150;27;20249;-77
2021/11/13 03:23:50;;;;;;;20.53;12.10;;;5.90;99.90;;;;;;5161496;27;20199;-69
2021/11/13 03:26:19;;;;;;;20.07;11.13;;;5.90;99.90;;;;;;5163151;27;20597;-69
2021/11/13 03:28:52;;;;;;;19.97;11.57;;;5.90;99.90;;;;;;5171408;27;20199;-69
2021/11/13 03:31:22;;;;;;;19.97;11.63;;;5.90;99.90;;;;;;5166403;27;20278;-69
2021/11/13 03:33:49;;;;;;;19.43;11.23;;;5.90;99.90;;;;;;5171212;27;20299;-69
2021/11/13 03:36:19;;;;;;;19.00;11.40;;;5.90;99.90;;;;;;5164853;27;20248;-69
2021/11/13 03:38:47;;;;;;;20.40;10.83;;;5.90;99.90;;;;;;5155414;27;20199;-77
2021/11/13 03:41:14;;;;;;;20.77;11.97;;;5.90;99.90;;;;;;5166117;27;20660;-77
2021/11/13 03:43:41;;;;;;;18.33;11.20;;;6.00;99.90;;;;;;5157268;27;20264;-77
2021/11/13 03:46:11;;;;;;;19.87;12.30;;;6.00;99.90;;;;;;5163434;27;20198;-77
2021/11/13 03:48:38;;;;;;;21.90;11.90;;;6.00;99.90;;;;;;5162780;27;20710;-77
2021/11/13 03:51:05;;;;;;;20.17;11.17;;;6.00;99.90;;;;;;5156194;27;20216;-77
2021/11/13 03:53:32;;;;;;;19.57;11.57;;;6.00;99.90;;;;;;5157539;27;20203;-77
2021/11/13 03:55:59;;;;;;;20.53;11.67;;;6.00;99.90;;;;;;5167793;27;20190;-77
2021/11/13 03:58:27;;;;;;;19.93;12.00;;;6.00;99.90;;;;;;5169022;27;20208;-77
2021/11/13 04:00:54;;;;;;;21.90;13.13;;;6.00;99.90;;;;;;5173814;27;20262;-77
2021/11/13 04:03:22;;;;;;;19.53;11.60;;;6.00;99.90;;;;;;5160357;27;20203;-77
2021/11/13 04:05:49;;;;;;;19.37;11.37;;;5.90;99.90;;;;;;5169582;27;20196;-77
2021/11/13 04:08:16;;;;;;;20.23;11.90;;;6.00;99.90;;;;;;5152684;27;20200;-77
2021/11/13 04:10:43;;;;;;;19.90;11.47;;;5.90;99.90;;;;;;5168190;27;20342;-77
2021/11/13 04:13:11;;;;;;;19.73;11.60;;;5.90;99.90;;;;;;5155030;27;20260;-77
2021/11/13 04:15:39;;;;;;;18.80;11.20;;;5.90;99.90;;;;;;5156273;27;20195;-77
2021/11/13 04:18:06;;;;;;;20.00;11.53;;;5.90;99.90;;;;;;5171022;27;20233;-77
2021/11/13 04:20:34;;;;;;;20.23;11.93;;;5.90;99.90;;;;;;5158702;27;20203;-77
2021/11/13 04:23:01;;;;;;;19.23;11.07;;;5.90;99.90;;;;;;5155042;27;20244;-77
2021/11/13 04:25:29;;;;;;;21.00;12.23;;;5.80;99.90;;;;;;5160924;27;20455;-77
2021/11/13 04:27:56;;;;;;;19.33;11.20;;;5.80;99.90;;;;;;5161986;27;20230;-77
2021/11/13 04:30:23;;;;;;;18.40;11.00;;;5.80;99.90;;;;;;5155963;27;20279;-77
2021/11/13 04:32:52;;;;;;;20.63;11.40;;;5.80;99.90;;;;;;5172589;27;20244;-77
2021/11/13 04:35:22;;;;;;;18.87;10.73;;;5.80;99.90;;;;;;5161891;27;20606;-77
2021/11/13 04:37:53;;;;;;;19.80;11.60;;;5.80;99.90;;;;;;5153055;27;20649;-77
2021/11/13 04:40:22;;;;;;;18.83;10.70;;;5.70;99.90;;;;;;5153841;27;20282;-77
2021/11/13 04:42:49;;;;;;;19.23;11.17;;;5.60;99.90;;;;;;5163091;27;20259;-77
2021/11/13 04:45:17;;;;;;;19.97;11.23;;;5.50;99.90;;;;;;5171964;27;20660;-77
2021/11/13 04:47:44;;;;;;;19.00;11.40;;;5.50;99.90;;;;;;5173659;27;20203;-77
2021/11/13 04:50:17;;;;;;;20.13;11.43;;;5.50;99.90;;;;;;5161284;27;20752;-77
2021/11/13 04:52:44;;;;;;;20.23;11.57;;;5.40;99.90;;;;;;5152482;27;20195;-77
2021/11/13 04:55:13;;;;;;;19.73;11.83;;;5.40;99.90;;;;;;5159695;27;20199;-77
2021/11/13 04:57:41;;;;;;;20.20;11.67;;;5.30;99.90;;;;;;5153070;27;20191;-77
2021/11/13 05:00:11;;;;;;;19.23;11.47;;;5.30;99.90;;;;;;5158513;27;20207;-77
2021/11/13 05:02:38;;;;;;;19.87;11.90;;;5.20;99.90;;;;;;5153750;27;20645;-77
2021/11/13 05:05:06;;;;;;;19.93;11.67;;;5.10;99.90;;;;;;5170586;27;20195;-77
2021/11/13 05:07:34;;;;;;;19.43;11.03;;;5.10;99.90;;;;;;5156528;27;20195;-77
2021/11/13 05:10:01;;;;;;;18.63;10.57;;;5.00;99.90;;;;;;5166350;27;20259;-77
2021/11/13 05:12:29;;;;;;;17.30;10.77;;;5.00;99.90;;;;;;5164864;27;20607;-77
2021/11/13 05:14:56;;;;;;;19.60;11.57;;;4.90;99.90;;;;;;5165676;27;20218;-77
2021/11/13 05:17:23;;;;;;;20.93;11.60;;;5.00;99.90;;;;;;5170871;27;20596;-77
2021/11/13 05:19:50;;;;;;;19.67;11.13;;;4.90;99.90;;;;;;5156315;27;20618;-77
2021/11/13 05:22:17;;;;;;;20.23;11.37;;;4.90;99.90;;;;;;5162202;27;20195;-77
2021/11/13 05:24:44;;;;;;;18.63;10.70;;;5.00;99.90;;;;;;5157603;27;20204;-77
2021/11/13 05:27:12;;;;;;;20.03;11.60;;;5.10;99.90;;;;;;5159659;27;20279;-77
2021/11/13 05:29:41;;;;;;;18.53;10.87;;;5.20;99.90;;;;;;5172947;27;20567;-77
2021/11/13 05:32:09;;;;;;;22.50;12.47;;;5.40;99.90;;;;;;5170619;27;20435;-77
2021/11/13 05:34:36;;;;;;;21.13;12.33;;;5.40;99.90;;;;;;5161606;27;20366;-77
2021/11/13 05:37:03;;;;;;;21.73;11.43;;;5.40;99.90;;;;;;5159401;27;20844;-77
2021/11/13 05:39:30;;;;;;;19.20;11.30;;;5.30;99.90;;;;;;5155375;27;20264;-77
2021/11/13 05:41:57;;;;;;;18.87;10.37;;;5.30;99.90;;;;;;5173421;27;20724;-77
2021/11/13 05:44:24;;;;;;;18.47;10.27;;;5.40;99.90;;;;;;5160131;27;20610;-77
2021/11/13 05:46:54;;;;;;;19.10;10.87;;;5.50;99.90;;;;;;5162774;27;20234;-77
2021/11/13 05:49:21;;;;;;;20.70;11.43;;;5.50;99.90;;;;;;5167413;27;20199;-77
2021/11/13 05:51:48;;;;;;;17.80;10.23;;;5.60;99.90;;;;;;5163522;27;20282;-77
2021/11/13 05:54:15;;;;;;;20.73;11.60;;;5.70;99.90;;;;;;5163329;27;20237;-77
2021/11/13 05:56:42;;;;;;;18.90;10.07;;;5.70;99.90;;;;;;5168715;27;20704;-77
2021/11/13 05:59:09;;;;;;;20.13;10.77;;;5.80;99.90;;;;;;5167420;27;20640;-77
2021/11/13 06:01:36;;;;;;;20.80;11.47;;;5.90;99.90;;;;;;5173277;27;20704;-78
2021/11/13 06:04:05;;;;;;;20.23;11.60;;;5.90;99.90;;;;;;5169269;27;20259;-77
2021/11/13 06:06:32;;;;;;;21.00;11.63;;;5.90;99.90;;;;;;5171601;27;20247;-77
2021/11/13 06:08:59;;;;;;;19.67;12.37;;;5.90;99.90;;;;;;5166150;27;20583;-77
2021/11/13 06:11:26;;;;;;;20.20;12.00;;;5.90;99.90;;;;;;5156773;27;20681;-77
2021/11/13 06:13:53;;;;;;;21.57;11.90;;;5.90;99.90;;;;;;5173487;27;20206;-77
2021/11/13 06:16:20;;;;;;;19.30;10.70;;;5.90;99.90;;;;;;5175013;27;20195;-77
2021/11/13 06:18:47;;;;;;;19.40;11.07;;;6.00;99.90;;;;;;5172061;27;20195;-77
2021/11/13 06:21:16;;;;;;;18.60;10.67;;;6.00;99.90;;;;;;5175180;27;20199;-77
2021/11/13 06:23:45;;;;;;;19.77;11.13;;;6.10;99.90;;;;;;5170075;27;20259;-77
2021/11/13 06:26:15;;;;;;;18.40;10.77;;;6.00;99.90;;;;;;5177658;27;20207;-77
2021/11/13 06:28:42;;;;;;;20.77;12.00;;;6.10;99.90;;;;;;5165580;27;20199;-77
2021/11/13 06:31:10;;;;;;;20.60;11.27;;;6.10;99.90;;;;;;5175680;27;20265;-77
2021/11/13 06:33:37;;;;;;;21.70;11.47;;;6.10;99.90;;;;;;5174131;27;20247;-77
2021/11/13 06:36:06;;;;;;;19.23;10.90;;;6.10;99.90;;;;;;5176713;27;20203;-77
2021/11/13 06:38:34;;;;;;;20.57;12.27;;;6.10;99.90;;;;;;5172047;27;20203;-76
2021/11/13 06:41:01;;;;;;;20.73;12.60;;;6.00;99.90;;;;;;5175231;27;20203;-77
2021/11/13 06:43:28;;;;;;;19.10;11.27;;;6.00;99.90;;;;;;5161337;27;20199;-77
2021/11/13 06:45:55;;;;;;;19.77;12.07;;;6.00;99.90;;;;;;5174592;27;20191;-77
2021/11/13 06:48:22;;;;;;;19.67;10.77;;;6.00;99.90;;;;;;5170718;27;20200;-76
2021/11/13 06:50:52;;;;;;;18.67;10.63;;;6.00;99.90;;;;;;5156031;27;20241;-76
2021/11/13 06:53:19;;;;;;;18.57;11.83;;;6.00;99.90;;;;;;5159205;27;20211;-76
2021/11/13 06:55:48;;;;;;;19.93;12.13;;;6.00;99.90;;;;;;5176958;27;20285;-77
2021/11/13 06:58:15;;;;;;;21.57;12.07;;;6.00;99.90;;;;;;5165152;27;20203;-77
2021/11/13 07:00:42;;;;;;;23.97;12.57;;;6.00;99.90;;;;;;5154922;27;20248;-77
2021/11/13 07:03:09;;;;;;;19.30;12.00;;;6.00;99.90;;;;;;5155855;27;20238;-76
2021/11/13 07:05:36;;;;;;;19.57;11.17;;;5.70;99.90;;;;;;5172846;27;20240;-76
2021/11/13 07:08:05;;;;;;;23.20;12.80;;;5.70;99.90;;;;;;5153487;27;20196;-76
2021/11/13 07:10:32;;;;;;;18.17;11.50;;;5.70;99.90;;;;;;5164677;27;20223;-76
2021/11/13 07:13:00;;;;;;;21.13;12.20;;;5.70;99.90;;;;;;5155351;27;20256;-76
2021/11/13 07:15:31;;;;;;;22.13;12.63;;;5.50;99.90;;;;;;5171162;27;20211;-76
2021/11/13 07:17:59;;;;;;;22.23;13.67;;;5.60;99.90;;;;;;5175276;27;20593;-76
2021/11/13 07:20:27;;;;;;;21.93;11.83;;;5.70;99.90;;;;;;5169556;27;20657;-76
2021/11/13 07:22:55;;;;;;;20.37;11.63;;;5.70;99.90;;;;;;5162264;27;20199;-76
2021/11/13 07:25:25;;;;;;;21.80;12.13;;;5.70;99.90;;;;;;5170382;27;20545;-77
2021/11/13 07:27:52;;;;;;;21.70;12.90;;;5.80;99.90;;;;;;5162402;27;20199;-76
2021/11/13 07:30:24;;;;;;;18.87;11.93;;;5.80;99.90;;;;;;5170772;27;20260;-76
2021/11/13 07:32:51;;;;;;;22.00;12.23;;;5.90;99.90;;;;;;5172459;27;20234;-76
2021/11/13 07:35:18;;;;;;;22.70;12.13;;;5.90;99.90;;;;;;5174341;27;20203;-76
2021/11/13 07:37:45;;;;;;;23.53;12.70;;;5.90;99.90;;;;;;5169029;27;20200;-75
2021/11/13 07:40:13;;;;;;;23.40;13.07;;;5.90;99.90;;;;;;5157383;27;20726;-75
2021/11/13 07:42:40;;;;;;;21.97;12.40;;;6.00;99.90;;;;;;5160983;27;20239;-75
2021/11/13 07:45:08;;;;;;;21.00;12.57;;;5.90;99.90;;;;;;5159916;27;20280;-75
2021/11/13 07:47:40;;;;;;;20.07;12.13;;;6.00;99.90;;;;;;5156419;27;20206;-76
2021/11/13 07:50:09;;;;;;;19.30;11.37;;;6.00;99.90;;;;;;5160941;27;20290;-76
2021/11/13 07:52:36;;;;;;;21.90;12.67;;;6.00;99.90;;;;;;5160632;27;20226;-76
2021/11/13 07:55:03;;;;;;;21.93;13.10;;;6.10;99.90;;;;;;5163909;27;20211;-76
2021/11/13 07:57:30;;;;;;;20.63;11.43;;;6.10;99.90;;;;;;5158854;27;20240;-76
2021/11/13 07:59:57;;;;;;;21.87;12.10;;;6.00;99.90;;;;;;5158650;27;20247;-76
2021/11/13 08:02:24;;;;;;;22.13;12.20;;;6.10;99.90;;;;;;5153509;27;20203;-76
2021/11/13 08:04:54;;;;;;;20.13;11.73;;;6.10;99.90;;;;;;5162719;27;20247;-76
2021/11/13 08:07:21;;;;;;;23.23;12.73;;;6.10;99.90;;;;;;5160121;27;20210;-76
2021/11/13 08:09:48;;;;;;;21.20;12.07;;;6.10;99.90;;;;;;5160896;27;20195;-76
2021/11/13 08:12:15;;;;;;;20.53;11.80;;;6.10;99.90;;;;;;5165357;27;20265;-76
2021/11/13 08:14:42;;;;;;;19.23;11.83;;;6.10;99.90;;;;;;5161242;27;20202;-76
2021/11/13 08:17:09;;;;;;;19.17;11.27;;;6.10;99.90;;;;;;5160652;27;20275;-75
2021/11/13 08:19:36;;;;;;;17.97;11.03;;;6.10;99.90;;;;;;5163942;27;20285;-76
2021/11/13 08:22:05;;;;;;;19.37;10.60;;;6.10;99.90;;;;;;5168198;27;20584;-76
2021/11/13 08:24:33;;;;;;;19.93;12.00;;;6.10;99.90;;;;;;5168032;27;20218;-76
2021/11/13 08:27:00;;;;;;;19.23;11.30;;;6.10;99.90;;;;;;5166758;27;20259;-76
2021/11/13 08:29:27;;;;;;;18.73;11.17;;;6.20;99.90;;;;;;5165985;27;20223;-75
2021/11/13 08:31:54;;;;;;;20.90;11.87;;;6.20;99.90;;;;;;5155666;27;20303;-75
2021/11/13 08:34:21;;;;;;;19.10;11.30;;;6.20;99.90;;;;;;5155141;27;20252;-76
2021/11/13 08:36:48;;;;;;;21.93;11.70;;;6.10;99.90;;;;;;5157904;27;20717;-75
2021/11/13 08:39:16;;;;;;;19.33;11.50;;;6.20;99.90;;;;;;5162315;27;20685;-75
2021/11/13 08:41:44;;;;;;;18.83;11.20;;;6.20;99.90;;;;;;5161993;27;20207;-75
2021/11/13 08:44:11;;;;;;;19.13;11.90;;;6.20;99.90;;;;;;5166201;27;20282;-75
2021/11/13 08:46:38;;;;;;;20.17;11.47;;;6.30;99.90;;;;;;5165193;27;20242;-75
2021/11/13 08:49:06;;;;;;;20.33;11.40;;;6.30;99.90;;;;;;5162859;27;20208;-75
2021/11/13 08:51:33;;;;;;;19.50;11.43;;;6.40;99.90;;;;;;5168694;27;20219;-75
2021/11/13 08:54:00;;;;;;;19.20;11.20;;;6.40;99.90;;;;;;5161892;27;20544;-75
2021/11/13 08:56:31;;;;;;;19.80;11.60;;;6.50;99.90;;;;;;5165418;27;20203;-75
2021/11/13 08:58:59;;;;;;;17.87;11.00;;;6.50;99.90;;;;;;5163458;27;20203;-74
2021/11/13 09:01:29;;;;;;;19.30;11.47;;;6.60;99.90;;;;;;5163537;27;20255;-75
2021/11/13 09:03:57;;;;;;;18.93;10.73;;;6.70;99.90;;;;;;5166518;27;20206;-75
2021/11/13 09:06:30;;;;;;;17.53;10.63;;;6.70;99.90;;;;;;5159510;27;20203;-75
2021/11/13 09:09:01;;;;;;;21.30;11.70;;;6.80;99.90;;;;;;5158198;27;20194;-74
2021/11/13 09:11:32;;;;;;;19.03;11.53;;;6.70;99.90;;;;;;5159844;27;20271;-74
2021/11/13 09:14:00;;;;;;;19.77;11.47;;;6.80;99.90;;;;;;5159321;27;20681;-74
2021/11/13 09:16:28;;;;;;;18.93;11.40;;;6.80;99.90;;;;;;5157787;27;20263;-74
2021/11/13 09:18:55;;;;;;;19.23;11.20;;;6.80;99.90;;;;;;5161497;27;20624;-74
2021/11/13 09:21:22;;;;;;;20.53;11.80;;;6.80;99.90;;;;;;5160816;27;20203;-74
2021/11/13 09:23:49;;;;;;;22.23;12.43;;;6.80;99.90;;;;;;5165280;27;20244;-74
2021/11/13 09:26:16;;;;;;;20.80;12.40;;;6.90;99.90;;;;;;5154850;27;20717;-74
2021/11/13 09:28:46;;;;;;;19.63;11.83;;;6.90;99.90;;;;;;5160599;27;20352;-74
2021/11/13 09:31:13;;;;;;;21.17;11.97;;;7.00;99.90;;;;;;5154253;27;20216;-74
2021/11/13 09:33:40;;;;;;;21.10;12.37;;;7.00;99.90;;;;;;5169955;22;20230;-73
2021/11/13 09:36:07;;;;;;;20.83;12.03;;;7.10;99.90;;;;;;5084691;28;20217;-75
2021/11/13 09:38:37;;;;;;;19.03;11.53;;;7.00;99.90;;;;;;5076191;28;20206;-74
2021/11/13 09:41:06;;;;;;;18.30;11.00;;;7.00;99.90;;;;;;5084451;28;20205;-74
2021/11/13 09:43:34;;;;;;;20.67;12.43;;;7.10;99.90;;;;;;5093599;28;20206;-74
2021/11/13 09:48:36;;;;;;;20.60;12.03;;;7.20;99.90;;;;;;5100932;28;20233;-74
2021/11/13 09:51:04;;;;;;;19.93;10.93;;;7.20;99.90;;;;;;5104819;28;20201;-74
2021/11/13 09:53:33;;;;;;;18.17;10.97;;;7.30;99.90;;;;;;5109230;28;20669;-75
2021/11/13 09:56:00;;;;;;;19.77;11.60;;;7.50;99.90;;;;;;5109728;28;20212;-75
2021/11/13 09:58:28;;;;;;;18.57;11.10;;;7.60;99.90;;;;;;5108432;28;20197;-75
2021/11/13 10:00:56;;;;;;;18.27;10.37;;;7.60;99.90;;;;;;5104212;28;20257;-75
2021/11/13 10:03:24;;;;;;;20.83;11.97;;;7.60;99.90;;;;;;5103249;28;20194;-75
2021/11/13 10:05:55;;;;;;;19.77;11.53;;;7.60;99.90;;;;;;5109461;28;20209;-74
2021/11/13 10:08:23;;;;;;;19.93;11.90;;;7.60;99.90;;;;;;5107199;28;20201;-75
2021/11/13 10:10:54;;;;;;;19.73;11.33;;;7.70;99.90;;;;;;5108878;28;20200;-75
2021/11/13 10:13:28;;;;;;;20.87;11.47;;;7.70;99.90;;;;;;5102952;28;20638;-75
2021/11/13 10:15:56;;;;;;;18.77;10.83;;;7.80;99.90;;;;;;5104818;28;20200;-75
2021/11/13 10:18:25;;;;;;;20.07;11.77;;;7.70;99.90;;;;;;5105153;28;20732;-75
2021/11/13 10:21:06;;;;;;;19.40;10.80;;;7.70;99.90;;;;;;5104910;28;20212;-75
2021/11/13 10:23:45;;;;;;;19.10;11.00;;;7.80;99.90;;;;;;5109008;28;20215;-74
2021/11/13 10:26:16;;;;;;;17.43;10.57;;;7.80;99.90;;;;;;5108117;28;20270;-74
2021/11/13 10:28:49;;;;;;;17.53;10.53;;;7.90;99.90;;;;;;5109268;28;20205;-75
2021/11/13 10:31:19;;;;;;;16.23;10.13;;;7.90;99.90;;;;;;5106090;28;20581;-75
2021/11/13 10:33:46;;;;;;;18.10;10.90;;;7.90;99.90;;;;;;5099124;28;20213;-75
2021/11/13 10:36:21;;;;;;;17.87;10.73;;;7.90;99.90;;;;;;5106938;28;20724;-75
2021/11/13 10:38:55;;;;;;;16.90;9.97;;;8.00;99.90;;;;;;5106289;28;20208;-75
2021/11/13 10:41:22;;;;;;;16.93;9.70;;;8.10;99.90;;;;;;5104750;28;20223;-75
2021/11/13 10:43:50;;;;;;;18.27;10.77;;;8.00;99.90;;;;;;5103408;28;20213;-75
2021/11/13 10:46:19;;;;;;;19.53;11.73;;;8.00;99.90;;;;;;5103039;28;20206;-75
2021/11/13 10:48:48;;;;;;;17.37;10.67;;;8.00;99.90;;;;;;5105940;28;20215;-75
2021/11/13 10:51:19;;;;;;;17.40;10.30;;;7.90;99.90;;;;;;5106169;28;20593;-75
2021/11/13 10:53:47;;;;;;;19.47;11.50;;;8.00;99.90;;;;;;5104055;28;20405;-75
2021/11/13 10:56:16;;;;;;;17.83;10.57;;;8.00;99.90;;;;;;5101218;28;20206;-75
2021/11/13 10:58:46;;;;;;;17.50;10.93;;;8.00;99.90;;;;;;5108172;28;20205;-75
2021/11/13 11:01:31;;;;;;;18.07;10.20;;;8.00;99.90;;;;;;5107355;28;20236;-75
2021/11/13 11:04:08;;;;;;;19.70;11.03;;;8.00;99.90;;;;;;5107828;28;20634;-75
2021/11/13 11:06:41;;;;;;;18.20;10.20;;;8.00;99.90;;;;;;5101963;28;20200;-74
2021/11/13 11:09:28;;;;;;;17.67;10.13;;;7.90;99.90;;;;;;5108865;28;20197;-75
2021/11/13 11:11:57;;;;;;;17.87;10.43;;;8.00;99.90;;;;;;5105240;28;20238;-75
2021/11/13 11:14:26;;;;;;;18.27;10.40;;;8.00;99.90;;;;;;5106474;28;20211;-75
2021/11/13 11:16:56;;;;;;;15.63;9.27;;;8.10;99.90;;;;;;5097695;28;20308;-75
2021/11/13 11:19:26;;;;;;;15.53;9.57;;;8.10;99.90;;;;;;5107732;28;20300;-75
2021/11/13 11:22:00;;;;;;;16.53;10.50;;;8.10;99.90;;;;;;5107617;28;20636;-74
2021/11/13 11:24:32;;;;;;;17.37;10.27;;;8.10;99.90;;;;;;5105147;28;20204;-75
2021/11/13 11:27:06;;;;;;;17.63;10.73;;;8.10;99.90;;;;;;5108331;28;20208;-75
2021/11/13 11:29:36;;;;;;;22.27;10.90;;;8.10;99.90;;;;;;5107417;28;20209;-68
2021/11/13 11:32:06;;;;;;;19.13;11.07;;;8.10;99.90;;;;;;5106112;28;20213;-69
2021/11/13 11:34:36;;;;;;;19.67;11.00;;;8.10;99.90;;;;;;5110516;28;20213;-75
2021/11/13 11:37:11;;;;;;;17.57;10.87;;;8.10;99.90;;;;;;5109762;28;20204;-68
2021/11/13 11:39:38;;;;;;;17.47;9.97;;;8.10;99.90;;;;;;5109367;28;20688;-69
2021/11/13 11:42:09;;;;;;;19.70;10.33;;;8.10;99.90;;;;;;5111206;28;20197;-71
2021/11/13 11:44:37;;;;;;;17.70;10.30;;;8.10;99.90;;;;;;5110515;28;20202;-71
2021/11/13 11:47:09;;;;;;;17.00;10.50;;;8.10;99.90;;;;;;5110648;28;20215;-71
2021/11/13 11:49:41;;;;;;;17.13;10.63;;;8.10;99.90;;;;;;5105115;28;20243;-71
2021/11/13 11:52:09;;;;;;;15.33;9.70;;;8.10;99.90;;;;;;5098842;28;20687;-71
2021/11/13 11:54:38;;;;;;;16.70;10.00;;;8.00;99.90;;;;;;5107061;28;20193;-75
2021/11/13 11:57:06;;;;;;;17.33;9.53;;;8.20;99.90;;;;;;5108200;28;20196;-75
2021/11/13 11:59:36;;;;;;;18.10;8.83;;;8.10;99.90;;;;;;5109240;28;20209;-75
2021/11/13 12:02:12;;;;;;;16.93;9.47;;;8.10;99.90;;;;;;5112434;28;20197;-75
2021/11/13 12:04:40;;;;;;;15.17;9.43;;;8.10;99.90;;;;;;5108818;28;20688;-75
2021/11/13 12:07:09;;;;;;;15.53;9.30;;;8.20;99.90;;;;;;5112098;28;20676;-76
2021/11/13 12:09:58;;;;;;;17.43;9.67;;;8.30;99.90;;;;;;5112600;28;20204;-76
2021/11/13 12:12:27;;;;;;;15.77;9.63;;;8.30;99.90;;;;;;5109086;28;20224;-74
2021/11/13 12:15:10;;;;;;;14.63;8.67;;;8.30;99.90;;;;;;5109563;28;20209;-75
2021/11/13 12:17:38;;;;;;;15.43;9.00;;;8.30;99.90;;;;;;5105895;28;20296;-76
2021/11/13 12:20:32;;;;;;;16.10;9.80;;;8.30;99.90;;;;;;5107109;28;20201;-76
2021/11/13 12:23:26;;;;;;;17.70;9.93;;;8.30;99.90;;;;;;5107235;28;20284;-76
2021/11/13 12:25:59;;;;;;;17.40;9.70;;;8.30;99.90;;;;;;5109252;28;20573;-76
2021/11/13 12:28:27;;;;;;;16.67;9.77;;;8.20;99.90;;;;;;5105645;28;20205;-76
2021/11/13 12:31:13;;;;;;;16.50;9.10;;;8.30;99.90;;;;;;5106784;28;20252;-76
2021/11/13 12:33:49;;;;;;;16.57;10.23;;;8.30;99.90;;;;;;5108480;28;20587;-76
2021/11/13 12:36:19;;;;;;;15.67;9.50;;;8.20;99.90;;;;;;5102470;28;20307;-76
2021/11/13 12:38:52;;;;;;;16.90;10.00;;;8.30;99.90;;;;;;5106715;28;20205;-76
2021/11/13 12:41:22;;;;;;;17.07;9.73;;;8.30;99.90;;;;;;5103935;28;20270;-76
2021/11/13 12:44:13;;;;;;;16.77;9.97;;;8.30;99.90;;;;;;5109063;28;20567;-77
2021/11/13 12:46:43;;;;;;;15.33;9.23;;;8.30;99.90;;;;;;5107257;28;20569;-76
2021/11/13 12:49:32;;;;;;;15.43;8.87;;;8.30;99.90;;;;;;5106890;28;20197;-76